< < Back
Terminal Aerodrome Forecast


Current Version              Previous Versions:   1  2  3  4  5  6  7  8  9  

Terminal Aerodrome Forecast

245
FTUS42 KFFC 242300
TAFCSG
TAF
KCSG 242337Z 2500/2524 26007KT P6SM SCT050 BKN100
     FM250300 VRB03KT P6SM VCSH SCT035 SCT120
     FM250800 00000KT 5SM BR SCT120
     FM251400 25006KT P6SM SCT045=

Latest METAR

024
SAUS70 KWBC 252200
MTRCSG
METAR KCSG 252151Z 28008KT 10SM BKN110 31/22 A2997 RMK AO2 SLP141
T03060217


USA.gov is the U.S. government's official web portal to all federal, state and local government web resources and services.